Time;durP1;ratioP1;P1;durP2;ratioP2;P2;SDS_P1;SDS_P2;PMS_P1;PMS_P2;Temp;Humidity;BMP_temperature;BMP_pressure;BME280_temperature;BME280_humidity;BME280_pressure;Samples;Min_cycle;Max_cycle;Signal;HPM_P1;HPM_P2
2022/03/06 00:01:53;;;;;;;4.32;3.00;;;4.70;99.90;;;;;;5075458;28;20844;-57
2022/03/06 00:04:22;;;;;;;5.13;3.28;;;4.70;99.90;;;;;;5074361;28;20414;-57
2022/03/06 00:06:47;;;;;;;5.65;3.22;;;4.60;99.90;;;;;;5075751;28;20404;-58
2022/03/06 00:09:14;;;;;;;4.43;3.47;;;4.60;99.90;;;;;;5075816;28;20394;-56
2022/03/06 00:11:41;;;;;;;6.97;3.58;;;4.70;99.90;;;;;;5093427;28;20401;-59
2022/03/06 00:14:08;;;;;;;4.28;3.00;;;4.60;99.90;;;;;;5073392;28;20412;-57
2022/03/06 00:16:34;;;;;;;3.63;2.70;;;4.60;99.90;;;;;;5093347;28;20417;-55
2022/03/06 00:19:02;;;;;;;5.47;3.15;;;4.60;99.90;;;;;;5074518;28;20444;-54
2022/03/06 00:21:30;;;;;;;4.82;3.00;;;4.60;99.90;;;;;;5074816;28;20468;-56
2022/03/06 00:23:57;;;;;;;4.05;3.00;;;4.60;99.90;;;;;;5074869;28;20382;-56
2022/03/06 00:26:24;;;;;;;4.78;3.05;;;4.60;99.90;;;;;;5077605;28;20539;-55
2022/03/06 00:28:51;;;;;;;3.85;2.45;;;4.60;99.90;;;;;;5076280;28;20490;-56
2022/03/06 00:31:18;;;;;;;5.85;4.78;;;4.70;99.90;;;;;;5093361;28;20814;-58
2022/03/06 00:33:44;;;;;;;14.63;10.80;;;4.80;99.90;;;;;;5075889;28;20381;-57
2022/03/06 00:36:11;;;;;;;6.18;4.10;;;5.00;99.90;;;;;;5076686;28;20397;-56
2022/03/06 00:38:38;;;;;;;5.45;3.35;;;4.80;99.90;;;;;;5077274;28;20382;-57
2022/03/06 00:41:03;;;;;;;4.25;2.72;;;4.70;99.90;;;;;;5076921;28;20459;-56
2022/03/06 00:43:30;;;;;;;4.18;3.10;;;4.60;99.90;;;;;;5060173;28;20694;-54
2022/03/06 00:45:57;;;;;;;4.32;3.15;;;4.60;99.90;;;;;;5058572;28;20379;-57
2022/03/06 00:48:24;;;;;;;7.05;3.42;;;4.50;99.90;;;;;;5069403;28;20410;-58
2022/03/06 00:50:49;;;;;;;4.38;3.10;;;4.40;99.90;;;;;;5077154;28;20681;-54
2022/03/06 00:53:15;;;;;;;5.40;3.43;;;4.40;99.90;;;;;;5072704;28;20390;-56
2022/03/06 00:55:41;;;;;;;5.53;3.20;;;4.40;99.90;;;;;;5071176;28;20378;-55
2022/03/06 00:58:07;;;;;;;6.35;3.53;;;4.40;99.90;;;;;;5070094;28;20813;-56
2022/03/06 01:00:35;;;;;;;4.30;3.20;;;4.40;99.90;;;;;;5087103;28;20385;-57
2022/03/06 01:03:05;;;;;;;4.75;3.58;;;4.30;99.90;;;;;;5087885;28;20382;-56
2022/03/06 01:05:30;;;;;;;5.05;3.72;;;4.30;99.90;;;;;;5068182;28;20385;-67
2022/03/06 01:07:56;;;;;;;4.93;3.45;;;4.20;99.90;;;;;;5071777;28;20397;-54
2022/03/06 01:10:22;;;;;;;5.05;3.72;;;4.10;99.90;;;;;;5094186;28;20400;-55
2022/03/06 01:12:48;;;;;;;5.50;3.72;;;4.20;99.90;;;;;;5074668;28;20491;-57
2022/03/06 01:15:14;;;;;;;5.55;3.70;;;4.20;99.90;;;;;;5094665;28;20419;-59
2022/03/06 01:17:39;;;;;;;4.13;3.67;;;4.10;99.90;;;;;;5092794;28;20764;-58
2022/03/06 01:20:06;;;;;;;5.90;3.80;;;4.10;99.90;;;;;;5076919;28;20386;-55
2022/03/06 01:22:31;;;;;;;6.85;3.63;;;4.00;99.90;;;;;;5094955;28;20412;-58
2022/03/06 01:24:57;;;;;;;5.57;3.67;;;4.00;99.90;;;;;;5077659;28;20469;-56
2022/03/06 01:27:22;;;;;;;5.50;3.85;;;4.00;99.90;;;;;;5095386;28;20431;-59
2022/03/06 01:29:48;;;;;;;6.07;3.93;;;3.90;99.90;;;;;;5077651;28;20682;-57
2022/03/06 01:32:14;;;;;;;5.73;3.70;;;3.90;99.90;;;;;;5078216;28;20412;-57
2022/03/06 01:34:39;;;;;;;27.45;20.98;;;3.80;99.90;;;;;;5078702;28;20441;-58
2022/03/06 01:37:04;;;;;;;44.87;34.67;;;4.00;99.90;;;;;;5079094;28;20441;-56
2022/03/06 01:39:30;;;;;;;23.50;17.83;;;3.90;99.90;;;;;;5077493;28;20382;-55
2022/03/06 01:41:56;;;;;;;6.18;4.43;;;3.90;99.90;;;;;;5078221;28;20382;-55
2022/03/06 01:44:22;;;;;;;6.80;4.00;;;3.90;99.90;;;;;;5077401;28;20374;-57
2022/03/06 01:46:48;;;;;;;5.95;3.70;;;3.90;99.90;;;;;;5095667;28;20697;-55
2022/03/06 01:49:15;;;;;;;6.68;3.90;;;3.90;99.90;;;;;;5095090;28;20721;-55
2022/03/06 01:51:41;;;;;;;4.67;3.60;;;3.80;99.90;;;;;;5095357;28;20465;-53
2022/03/06 01:54:07;;;;;;;5.53;3.88;;;3.80;99.90;;;;;;5075034;28;20381;-56
2022/03/06 01:56:33;;;;;;;5.60;3.88;;;3.70;99.90;;;;;;5075175;28;20581;-54
2022/03/06 01:59:01;;;;;;;5.65;3.65;;;3.70;99.90;;;;;;5095107;28;20433;-57
2022/03/06 02:01:27;;;;;;;6.65;3.60;;;3.70;99.90;;;;;;5076798;28;20472;-54
2022/03/06 02:03:52;;;;;;;4.40;3.58;;;3.60;99.90;;;;;;5094325;28;20401;-55
2022/03/06 02:06:19;;;;;;;6.03;3.80;;;3.70;99.90;;;;;;5077900;28;20378;-55
2022/03/06 02:08:46;;;;;;;5.00;3.67;;;3.70;99.90;;;;;;5078508;28;20382;-58
2022/03/06 02:11:12;;;;;;;4.57;3.65;;;3.70;99.90;;;;;;5077263;28;20413;-56
2022/03/06 02:13:38;;;;;;;38.08;25.30;;;3.70;99.90;;;;;;5080059;28;20386;-56
2022/03/06 02:16:05;;;;;;;20.67;14.35;;;3.80;99.90;;;;;;5077821;28;20432;-54
2022/03/06 02:18:30;;;;;;;19.30;14.60;;;3.70;99.90;;;;;;5093711;28;20800;-54
2022/03/06 02:20:56;;;;;;;7.77;5.70;;;3.80;99.90;;;;;;5073307;28;20395;-56
2022/03/06 02:23:22;;;;;;;5.23;4.07;;;3.80;99.90;;;;;;5089142;28;20709;-51
2022/03/06 02:25:48;;;;;;;5.82;3.85;;;3.80;99.90;;;;;;5071375;28;20385;-57
2022/03/06 02:28:13;;;;;;;5.28;3.63;;;3.80;99.90;;;;;;5071397;28;20406;-58
2022/03/06 02:30:42;;;;;;;5.60;3.55;;;3.90;99.90;;;;;;5074077;28;20662;-57
2022/03/06 02:33:10;;;;;;;5.40;3.50;;;3.80;99.90;;;;;;5075723;28;20390;-53
2022/03/06 02:35:36;;;;;;;4.80;3.25;;;3.80;99.90;;;;;;5076679;28;20451;-54
2022/03/06 02:38:03;;;;;;;6.72;3.47;;;3.80;99.90;;;;;;5077396;28;20402;-58
2022/03/06 02:40:29;;;;;;;4.55;3.28;;;3.80;99.90;;;;;;5076757;28;20385;-54
2022/03/06 02:42:55;;;;;;;6.23;3.50;;;3.70;99.90;;;;;;5075971;28;20382;-56
2022/03/06 02:45:25;;;;;;;4.90;3.30;;;3.70;99.90;;;;;;5094131;28;20507;-56
2022/03/06 02:47:53;;;;;;;4.68;3.35;;;3.70;99.90;;;;;;5076577;28;20409;-56
2022/03/06 02:50:24;;;;;;;5.68;3.45;;;3.70;99.90;;;;;;5093898;28;20938;-58
2022/03/06 02:52:51;;;;;;;4.72;3.45;;;3.70;99.90;;;;;;5075626;28;20608;-59
2022/03/06 02:55:17;;;;;;;5.63;3.30;;;3.70;99.90;;;;;;5075418;28;20464;-58
2022/03/06 02:57:43;;;;;;;4.03;2.83;;;3.70;99.90;;;;;;5092795;28;20394;-57
2022/03/06 03:00:11;;;;;;;6.40;3.67;;;3.70;99.90;;;;;;5075613;28;20724;-57
2022/03/06 03:02:37;;;;;;;4.38;3.33;;;3.70;99.90;;;;;;5093752;28;20401;-53
2022/03/06 03:05:05;;;;;;;5.05;3.38;;;3.70;99.90;;;;;;5074521;28;20477;-56
2022/03/06 03:07:30;;;;;;;27.80;21.00;;;3.70;99.90;;;;;;5073252;28;20552;-58
2022/03/06 03:09:56;;;;;;;25.03;18.23;;;3.70;99.90;;;;;;5075134;28;20496;-57
2022/03/06 03:12:22;;;;;;;17.92;13.98;;;3.70;99.90;;;;;;5075200;28;20459;-57
2022/03/06 03:14:47;;;;;;;6.85;4.25;;;3.70;99.90;;;;;;5075608;28;20596;-58
2022/03/06 03:17:13;;;;;;;4.72;3.03;;;3.70;99.90;;;;;;5075033;28;20421;-57
2022/03/06 03:19:38;;;;;;;4.32;2.75;;;3.60;99.90;;;;;;5091758;28;20660;-57
2022/03/06 03:22:04;;;;;;;3.67;2.90;;;3.70;99.90;;;;;;5076192;28;20460;-55
2022/03/06 03:24:30;;;;;;;4.33;2.83;;;3.70;99.90;;;;;;5076167;28;20389;-55
2022/03/06 03:26:55;;;;;;;4.80;2.83;;;3.70;99.90;;;;;;5092062;28;20397;-56
2022/03/06 03:29:21;;;;;;;4.28;3.05;;;3.70;99.90;;;;;;5092463;28;20381;-57
2022/03/06 03:31:47;;;;;;;4.03;2.90;;;3.70;99.90;;;;;;5092764;28;20393;-54
2022/03/06 03:34:13;;;;;;;4.87;3.00;;;3.60;99.90;;;;;;5092557;28;20468;-56
2022/03/06 03:36:39;;;;;;;3.63;2.78;;;3.60;99.90;;;;;;5074967;28;20494;-58
2022/03/06 03:39:05;;;;;;;3.90;2.80;;;3.60;99.90;;;;;;5072813;28;20379;-55
2022/03/06 03:41:31;;;;;;;5.82;3.03;;;3.70;99.90;;;;;;5076260;28;20697;-56
2022/03/06 03:43:57;;;;;;;4.45;2.90;;;3.60;99.90;;;;;;5077518;28;20414;-59
2022/03/06 03:46:22;;;;;;;3.87;2.87;;;3.60;99.90;;;;;;5077596;28;20378;-59
2022/03/06 03:48:48;;;;;;;6.20;3.10;;;3.60;99.90;;;;;;5076042;28;20394;-56
2022/03/06 03:51:14;;;;;;;4.10;2.80;;;3.60;99.90;;;;;;5074156;28;20485;-57
2022/03/06 03:53:39;;;;;;;3.50;2.42;;;3.60;99.90;;;;;;5073283;28;20385;-53
2022/03/06 03:56:05;;;;;;;4.50;2.30;;;3.50;99.90;;;;;;5071638;28;20427;-58
2022/03/06 03:58:31;;;;;;;3.30;2.40;;;3.50;99.90;;;;;;5072785;28;20412;-59
2022/03/06 04:01:09;;;;;;;4.05;2.38;;;3.50;99.90;;;;;;5072755;28;20378;-57
2022/03/06 04:03:35;;;;;;;3.67;2.45;;;3.50;99.90;;;;;;5072513;28;20397;-57
2022/03/06 04:06:00;;;;;;;3.30;2.30;;;3.50;99.90;;;;;;5074405;28;20390;-58
2022/03/06 04:08:26;;;;;;;3.63;2.22;;;3.50;99.90;;;;;;5075745;28;20400;-56
2022/03/06 04:10:51;;;;;;;5.25;2.70;;;3.50;99.90;;;;;;5074233;28;20844;-56
2022/03/06 04:13:17;;;;;;;2.90;2.17;;;3.50;99.90;;;;;;5074456;28;20386;-57
2022/03/06 04:15:45;;;;;;;2.90;2.10;;;3.50;99.90;;;;;;5073986;28;20393;-59
2022/03/06 04:18:10;;;;;;;3.35;2.17;;;3.40;99.90;;;;;;5074702;28;20406;-57
2022/03/06 04:20:36;;;;;;;2.90;1.92;;;3.40;99.90;;;;;;5073757;28;20386;-55
2022/03/06 04:23:02;;;;;;;3.45;2.25;;;3.50;99.90;;;;;;5076629;28;20440;-58
2022/03/06 04:25:28;;;;;;;3.63;2.08;;;3.50;99.90;;;;;;5093674;28;20394;-58
2022/03/06 04:27:53;;;;;;;3.05;2.00;;;3.40;99.90;;;;;;5074851;28;20698;-59
2022/03/06 04:30:19;;;;;;;2.70;1.80;;;3.40;99.90;;;;;;5074038;28;20382;-59
2022/03/06 04:32:44;;;;;;;2.80;1.73;;;3.40;99.90;;;;;;5073611;28;20711;-57
2022/03/06 04:35:11;;;;;;;4.00;2.40;;;3.40;99.90;;;;;;5073367;28;20820;-58
2022/03/06 04:37:36;;;;;;;2.13;1.80;;;3.40;99.90;;;;;;5091987;28;20401;-58
2022/03/06 04:40:03;;;;;;;3.57;2.03;;;3.40;99.90;;;;;;5091495;28;20395;-55
2022/03/06 04:42:28;;;;;;;2.97;2.00;;;3.40;99.90;;;;;;5074671;28;20382;-56
2022/03/06 04:44:54;;;;;;;3.40;1.90;;;3.50;99.90;;;;;;5078123;28;20448;-58
2022/03/06 04:47:20;;;;;;;3.70;2.33;;;3.50;99.90;;;;;;5080645;28;20411;-56
2022/03/06 04:49:45;;;;;;;3.03;2.13;;;3.40;99.90;;;;;;5078938;28;20421;-55
2022/03/06 04:52:11;;;;;;;2.37;1.70;;;3.40;99.90;;;;;;5078335;28;20502;-56
2022/03/06 04:54:36;;;;;;;2.70;1.50;;;3.40;99.90;;;;;;5078929;28;20544;-59
2022/03/06 04:57:02;;;;;;;4.63;1.80;;;3.40;99.90;;;;;;5077494;28;20973;-59
2022/03/06 04:59:28;;;;;;;3.00;1.60;;;3.40;99.90;;;;;;5078990;28;20382;-58
2022/03/06 05:01:54;;;;;;;3.80;1.97;;;3.40;99.90;;;;;;5075756;28;20551;-56
2022/03/06 05:04:20;;;;;;;4.20;1.90;;;3.40;99.90;;;;;;5076899;28;20374;-58
2022/03/06 05:06:46;;;;;;;3.65;1.50;;;3.40;99.90;;;;;;5077209;28;20397;-57
2022/03/06 05:09:12;;;;;;;2.45;1.42;;;3.30;99.90;;;;;;5075758;28;20960;-57
2022/03/06 05:11:37;;;;;;;3.10;1.53;;;3.30;99.90;;;;;;5076905;28;20377;-57
2022/03/06 05:14:03;;;;;;;2.80;1.67;;;3.40;99.90;;;;;;5077492;28;20386;-58
2022/03/06 05:16:28;;;;;;;3.47;2.10;;;3.40;99.90;;;;;;5077390;28;20397;-53
2022/03/06 05:18:54;;;;;;;3.10;1.73;;;3.30;99.90;;;;;;5076091;28;20393;-57
2022/03/06 05:21:20;;;;;;;2.65;1.73;;;3.40;99.90;;;;;;5088694;28;20392;-59
2022/03/06 05:23:45;;;;;;;1.95;1.65;;;3.30;99.90;;;;;;5091195;28;20389;-56
2022/03/06 05:26:11;;;;;;;2.50;1.73;;;3.40;99.90;;;;;;5075907;28;20378;-56
2022/03/06 05:28:36;;;;;;;2.70;1.40;;;3.30;99.90;;;;;;5076532;28;20402;-57
2022/03/06 05:31:02;;;;;;;2.72;1.90;;;3.30;99.90;;;;;;5075889;28;20405;-55
2022/03/06 05:33:28;;;;;;;2.53;1.75;;;3.30;99.90;;;;;;5074713;28;20389;-58
2022/03/06 05:35:53;;;;;;;3.90;1.75;;;3.30;99.90;;;;;;5074725;28;20393;-56
2022/03/06 05:38:19;;;;;;;3.07;1.87;;;3.30;99.90;;;;;;5073550;28;20538;-55
2022/03/06 05:40:44;;;;;;;2.20;1.50;;;3.30;99.90;;;;;;5073423;28;20653;-58
2022/03/06 05:43:10;;;;;;;2.90;1.70;;;3.30;99.90;;;;;;5073084;28;20396;-59
2022/03/06 05:45:36;;;;;;;3.65;2.13;;;3.30;99.90;;;;;;5071344;28;20391;-56
2022/03/06 05:48:02;;;;;;;2.77;1.80;;;3.30;99.90;;;;;;5090077;28;20775;-56
2022/03/06 05:50:27;;;;;;;3.05;1.75;;;3.30;99.90;;;;;;5070929;28;20402;-57
2022/03/06 05:52:53;;;;;;;3.05;1.90;;;3.30;99.90;;;;;;5072132;28;20413;-56
2022/03/06 05:55:18;;;;;;;2.43;1.60;;;3.30;99.90;;;;;;5073205;28;20777;-59
2022/03/06 05:57:45;;;;;;;2.53;2.00;;;3.30;99.90;;;;;;5074574;28;20409;-55
2022/03/06 06:00:11;;;;;;;3.15;1.70;;;3.30;99.90;;;;;;5093368;28;20669;-56
2022/03/06 06:02:40;;;;;;;3.58;1.70;;;3.30;99.90;;;;;;5093080;28;20398;-57
2022/03/06 06:05:07;;;;;;;4.30;1.93;;;3.30;99.90;;;;;;5072580;28;20385;-56
2022/03/06 06:07:33;;;;;;;3.80;1.60;;;3.20;99.90;;;;;;5070137;28;20644;-57
2022/03/06 06:09:59;;;;;;;2.70;1.80;;;3.30;99.90;;;;;;5070340;28;20712;-56
2022/03/06 06:12:25;;;;;;;2.60;1.70;;;3.30;99.90;;;;;;5070484;28;20400;-56
2022/03/06 06:14:51;;;;;;;2.53;1.63;;;3.30;99.90;;;;;;5070404;28;20386;-55
2022/03/06 06:17:16;;;;;;;3.33;1.77;;;3.30;99.90;;;;;;5088262;28;20844;-59
2022/03/06 06:19:42;;;;;;;4.00;1.80;;;3.30;99.90;;;;;;5089112;28;20497;-59
2022/03/06 06:22:08;;;;;;;4.23;1.90;;;3.30;99.90;;;;;;5068615;28;20785;-57
2022/03/06 06:24:33;;;;;;;2.92;1.73;;;3.30;99.90;;;;;;5071205;28;20704;-54
2022/03/06 06:26:59;;;;;;;2.60;1.90;;;3.30;99.90;;;;;;5072333;28;20428;-59
2022/03/06 06:29:24;;;;;;;3.00;1.80;;;3.30;99.90;;;;;;5073680;28;20378;-57
2022/03/06 06:31:51;;;;;;;2.50;1.43;;;3.30;99.90;;;;;;5072896;28;20532;-57
2022/03/06 06:34:17;;;;;;;2.67;1.95;;;3.30;99.90;;;;;;5073214;28;20722;-57
2022/03/06 06:36:43;;;;;;;4.55;2.15;;;3.30;99.90;;;;;;5072559;28;20406;-59
2022/03/06 06:39:12;;;;;;;2.43;1.77;;;3.30;99.90;;;;;;5072620;28;20378;-58
2022/03/06 06:41:39;;;;;;;2.85;2.03;;;3.30;99.90;;;;;;5091904;28;20378;-57
2022/03/06 06:44:05;;;;;;;3.50;2.00;;;3.30;99.90;;;;;;5073749;28;20670;-54
2022/03/06 06:46:30;;;;;;;2.88;1.80;;;3.30;99.90;;;;;;5075955;28;20645;-56
2022/03/06 06:48:56;;;;;;;2.80;1.97;;;3.30;99.90;;;;;;5090876;28;20796;-57
2022/03/06 06:51:22;;;;;;;3.07;1.77;;;3.30;99.90;;;;;;5089943;28;20664;-55
2022/03/06 06:53:47;;;;;;;3.03;1.77;;;3.40;99.90;;;;;;5069946;28;20382;-57
2022/03/06 06:56:13;;;;;;;3.28;1.80;;;3.30;99.90;;;;;;5068032;28;20461;-56
2022/03/06 06:58:38;;;;;;;3.10;1.58;;;3.40;99.90;;;;;;5087185;28;20397;-56
2022/03/06 07:01:04;;;;;;;2.40;1.60;;;3.40;99.90;;;;;;5068528;28;20409;-55
2022/03/06 07:03:29;;;;;;;3.80;2.00;;;3.40;99.90;;;;;;5066367;28;20393;-59
2022/03/06 07:05:57;;;;;;;2.07;1.87;;;3.40;99.90;;;;;;5068033;28;20394;-56
2022/03/06 07:08:22;;;;;;;3.15;2.00;;;3.40;99.90;;;;;;5068733;28;20410;-58
2022/03/06 07:10:48;;;;;;;2.83;1.83;;;3.40;99.90;;;;;;5068599;28;20503;-58
2022/03/06 07:13:14;;;;;;;3.00;1.70;;;3.40;99.90;;;;;;5069232;28;20678;-58
2022/03/06 07:15:39;;;;;;;2.90;1.80;;;3.40;99.90;;;;;;5067997;28;20394;-58
2022/03/06 07:18:05;;;;;;;3.85;2.10;;;3.40;99.90;;;;;;5066469;28;20505;-54
2022/03/06 07:20:31;;;;;;;3.40;1.80;;;3.40;99.90;;;;;;5087472;28;20382;-57
2022/03/06 07:22:57;;;;;;;2.22;1.90;;;3.40;99.90;;;;;;5084352;28;20370;-58
2022/03/06 07:25:23;;;;;;;3.50;1.90;;;3.40;99.90;;;;;;5066123;28;20444;-58
2022/03/06 07:27:49;;;;;;;2.88;1.90;;;3.40;99.90;;;;;;5065429;28;20402;-57
2022/03/06 07:30:14;;;;;;;3.38;1.80;;;3.40;99.90;;;;;;5065569;28;20378;-58
2022/03/06 07:32:48;;;;;;;1.95;1.60;;;3.50;99.90;;;;;;5066373;28;20413;-57
2022/03/06 07:35:15;;;;;;;4.35;2.08;;;3.50;99.90;;;;;;5066725;28;20397;-55
2022/03/06 07:37:42;;;;;;;2.80;1.90;;;3.60;99.90;;;;;;5065013;28;21046;-57
2022/03/06 07:40:09;;;;;;;2.40;1.70;;;3.60;99.90;;;;;;5066459;28;20381;-58
2022/03/06 07:42:35;;;;;;;2.38;1.67;;;3.60;99.90;;;;;;5067818;28;20378;-58
2022/03/06 07:45:02;;;;;;;3.05;1.95;;;3.60;99.90;;;;;;5068340;28;20651;-56
2022/03/06 07:47:27;;;;;;;2.13;1.77;;;3.70;99.90;;;;;;5070121;28;20429;-58
2022/03/06 07:49:53;;;;;;;1.80;1.53;;;3.60;99.90;;;;;;5087037;28;20481;-59
2022/03/06 07:52:19;;;;;;;1.90;1.40;;;3.60;99.90;;;;;;5069902;28;20882;-57
2022/03/06 07:54:44;;;;;;;2.57;1.90;;;3.70;99.90;;;;;;5082867;28;20828;-57
2022/03/06 07:57:09;;;;;;;3.55;1.67;;;3.70;99.90;;;;;;5063992;28;20437;-56
2022/03/06 07:59:36;;;;;;;1.97;1.50;;;3.80;99.90;;;;;;5066170;28;20381;-58
2022/03/06 08:02:02;;;;;;;2.30;1.45;;;3.80;99.90;;;;;;5064223;28;20401;-54
2022/03/06 08:04:27;;;;;;;2.72;1.77;;;3.80;99.90;;;;;;5082928;28;20382;-59
2022/03/06 08:06:53;;;;;;;2.05;1.73;;;3.80;99.90;;;;;;5062785;28;20662;-59
2022/03/06 08:09:19;;;;;;;2.97;2.07;;;3.90;99.90;;;;;;5062454;28;20809;-58
2022/03/06 08:11:44;;;;;;;2.83;1.90;;;3.90;99.90;;;;;;5064197;28;20757;-53
2022/03/06 08:14:10;;;;;;;2.70;1.80;;;4.00;99.90;;;;;;5079524;28;20666;-58
2022/03/06 08:16:36;;;;;;;2.28;1.70;;;4.00;99.90;;;;;;5059474;28;20577;-56
2022/03/06 08:19:02;;;;;;;3.83;2.03;;;4.10;99.90;;;;;;5079835;28;20461;-56
2022/03/06 08:21:29;;;;;;;2.75;1.88;;;4.10;99.90;;;;;;5062474;28;20469;-56
2022/03/06 08:23:54;;;;;;;2.97;1.90;;;4.10;99.90;;;;;;5061443;28;20389;-57
2022/03/06 08:26:23;;;;;;;2.13;1.70;;;4.00;99.90;;;;;;5060918;28;20705;-58
2022/03/06 08:28:49;;;;;;;3.05;1.88;;;4.00;99.90;;;;;;5079227;28;20608;-58
2022/03/06 08:31:14;;;;;;;2.95;1.60;;;4.00;99.90;;;;;;5061382;28;20682;-55
2022/03/06 08:33:40;;;;;;;2.35;1.60;;;4.10;99.90;;;;;;5061596;28;20440;-58
2022/03/06 08:36:05;;;;;;;3.10;1.80;;;4.00;99.90;;;;;;5062811;28;20419;-56
2022/03/06 08:38:31;;;;;;;2.73;1.80;;;4.00;99.90;;;;;;5082007;28;20464;-58
2022/03/06 08:40:56;;;;;;;3.10;1.70;;;4.00;99.90;;;;;;5062815;28;20509;-59
2022/03/06 08:43:22;;;;;;;2.83;1.90;;;4.10;99.90;;;;;;5060683;28;20378;-59
2022/03/06 08:45:48;;;;;;;2.30;1.67;;;4.10;99.90;;;;;;5062085;28;20684;-56
2022/03/06 08:48:13;;;;;;;2.53;1.60;;;4.10;99.90;;;;;;5061395;28;20425;-55
2022/03/06 08:50:39;;;;;;;2.67;1.70;;;4.10;99.90;;;;;;5060117;28;20955;-59
2022/03/06 08:53:06;;;;;;;2.60;1.55;;;4.20;99.90;;;;;;5063265;28;20404;-57
2022/03/06 08:55:32;;;;;;;2.40;1.58;;;4.20;99.90;;;;;;5078796;28;20482;-55
2022/03/06 08:57:57;;;;;;;2.03;1.47;;;4.20;99.90;;;;;;5058863;28;20398;-53
2022/03/06 09:00:23;;;;;;;2.17;1.60;;;4.30;99.90;;;;;;5060917;28;20458;-58
2022/03/06 09:02:48;;;;;;;2.95;1.77;;;4.40;99.90;;;;;;5080427;28;20813;-58
2022/03/06 09:05:14;;;;;;;2.00;1.50;;;4.40;99.90;;;;;;5079937;28;20426;-59
2022/03/06 09:07:39;;;;;;;2.03;1.52;;;4.50;99.90;;;;;;5061106;28;20451;-57
2022/03/06 09:10:05;;;;;;;2.57;1.50;;;4.40;99.90;;;;;;5061037;28;20622;-57
2022/03/06 09:12:31;;;;;;;2.45;1.33;;;4.40;99.90;;;;;;5080761;28;20406;-56
2022/03/06 09:14:58;;;;;;;2.55;1.63;;;4.50;99.90;;;;;;5063400;28;20595;-58
2022/03/06 09:17:24;;;;;;;2.63;1.58;;;4.60;99.90;;;;;;5064535;28;20518;-55
2022/03/06 09:19:50;;;;;;;2.05;1.50;;;4.60;99.90;;;;;;5082336;28;20888;-58
2022/03/06 09:22:15;;;;;;;1.77;1.60;;;4.60;99.90;;;;;;5063967;28;20430;-59
2022/03/06 09:24:40;;;;;;;1.60;1.50;;;4.70;99.90;;;;;;5064165;28;20770;-55
2022/03/06 09:27:06;;;;;;;1.50;1.30;;;4.70;99.90;;;;;;5066166;28;20405;-58
2022/03/06 09:29:32;;;;;;;1.70;1.30;;;4.80;99.90;;;;;;5066249;28;20673;-59
2022/03/06 09:31:57;;;;;;;2.72;1.38;;;4.80;99.90;;;;;;5068944;28;20397;-53
2022/03/06 09:34:23;;;;;;;2.03;1.60;;;4.80;99.90;;;;;;5066572;28;20655;-57
2022/03/06 09:36:48;;;;;;;2.17;1.50;;;4.80;99.90;;;;;;5066513;28;20498;-58
2022/03/06 09:39:14;;;;;;;2.72;1.60;;;4.90;99.90;;;;;;5066420;28;20378;-56
2022/03/06 09:41:40;;;;;;;1.80;1.33;;;4.90;99.90;;;;;;5084481;28;20544;-56
2022/03/06 09:44:08;;;;;;;2.60;1.30;;;4.90;99.90;;;;;;5066110;28;20382;-57
2022/03/06 09:46:35;;;;;;;1.83;1.50;;;4.90;99.90;;;;;;5064784;28;20679;-55
2022/03/06 09:49:03;;;;;;;3.60;1.60;;;4.90;99.90;;;;;;5083605;28;20393;-57
2022/03/06 09:51:41;;;;;;;2.08;1.40;;;4.90;99.90;;;;;;5084556;28;20392;-56
2022/03/06 09:54:08;;;;;;;2.92;1.65;;;5.00;99.90;;;;;;5069199;28;20385;-58
2022/03/06 09:56:34;;;;;;;2.03;1.60;;;5.00;99.90;;;;;;5086187;28;20379;-59
2022/03/06 09:59:00;;;;;;;2.05;1.60;;;5.10;99.90;;;;;;5068624;28;20463;-56
2022/03/06 10:01:25;;;;;;;3.20;1.90;;;5.10;99.90;;;;;;5066549;28;20371;-55
2022/03/06 10:03:51;;;;;;;2.57;1.53;;;5.20;99.90;;;;;;5085040;28;20406;-58
2022/03/06 10:06:16;;;;;;;2.37;1.63;;;5.30;99.90;;;;;;5065344;28;20422;-57
2022/03/06 10:08:42;;;;;;;2.30;1.40;;;5.20;99.90;;;;;;5062604;28;20382;-58
2022/03/06 10:11:10;;;;;;;2.50;1.50;;;5.20;99.90;;;;;;5062427;28;20382;-52
2022/03/06 10:13:38;;;;;;;3.03;1.92;;;5.30;99.90;;;;;;5082413;28;20382;-54
2022/03/06 10:16:09;;;;;;;2.15;1.65;;;5.40;99.90;;;;;;5061817;28;20456;-57
2022/03/06 10:18:46;;;;;;;2.42;1.80;;;5.40;99.90;;;;;;5064681;28;20417;-59
2022/03/06 10:21:14;;;;;;;2.35;1.38;;;5.50;99.90;;;;;;5061442;28;20378;-56
2022/03/06 10:23:40;;;;;;;3.00;2.15;;;5.60;99.90;;;;;;5063499;28;20902;-53
2022/03/06 10:26:10;;;;;;;3.40;1.90;;;5.60;99.90;;;;;;5063153;28;20451;-59
2022/03/06 10:28:49;;;;;;;2.85;1.67;;;5.50;99.90;;;;;;5063018;28;20402;-56
2022/03/06 10:31:15;;;;;;;1.90;1.45;;;5.50;99.90;;;;;;5064883;28;20386;-57
2022/03/06 10:33:41;;;;;;;2.83;1.77;;;5.40;99.90;;;;;;5084688;28;20394;-57
2022/03/06 10:36:08;;;;;;;2.90;1.80;;;5.50;99.90;;;;;;5066307;28;20397;-54
2022/03/06 10:38:35;;;;;;;2.63;1.67;;;5.50;99.90;;;;;;5062909;28;20845;-59
2022/03/06 10:41:12;;;;;;;3.78;1.65;;;5.60;99.90;;;;;;5065771;28;20701;-56
2022/03/06 10:43:38;;;;;;;3.67;1.87;;;5.90;99.90;;;;;;5083058;28;20459;-58
2022/03/06 10:46:16;;;;;;;3.20;1.70;;;6.10;99.90;;;;;;5084865;28;20385;-56
2022/03/06 10:48:57;;;;;;;2.10;1.63;;;6.30;99.90;;;;;;5064441;28;20394;-56
2022/03/06 10:51:23;;;;;;;2.08;1.80;;;6.60;99.90;;;;;;5067409;28;20385;-58
2022/03/06 10:53:57;;;;;;;2.22;1.50;;;7.00;99.90;;;;;;5067917;28;20382;-56
2022/03/06 10:56:24;;;;;;;2.47;2.05;;;7.50;99.90;;;;;;5064546;28;20725;-57
2022/03/06 10:58:50;;;;;;;2.10;1.80;;;7.60;99.90;;;;;;5081571;28;20405;-57
2022/03/06 11:01:16;;;;;;;3.27;2.10;;;7.70;99.90;;;;;;5065976;28;20378;-57
2022/03/06 11:03:42;;;;;;;2.33;1.70;;;7.90;99.90;;;;;;5066325;28;20828;-58
2022/03/06 11:06:09;;;;;;;2.70;1.83;;;7.80;99.90;;;;;;5067802;28;20382;-58
2022/03/06 11:08:37;;;;;;;3.75;2.05;;;7.70;99.90;;;;;;5083442;28;20392;-58
2022/03/06 11:11:08;;;;;;;2.63;1.85;;;7.60;99.90;;;;;;5060627;28;20600;-59
2022/03/06 11:13:35;;;;;;;4.68;1.75;;;7.50;99.90;;;;;;5059707;28;20386;-56
2022/03/06 11:16:01;;;;;;;2.97;1.60;;;7.40;99.90;;;;;;5077398;28;20462;-57
2022/03/06 11:18:28;;;;;;;2.03;1.60;;;7.60;99.90;;;;;;5059633;28;21049;-58
2022/03/06 11:20:56;;;;;;;3.85;2.33;;;7.80;99.90;;;;;;5060350;28;20678;-57
2022/03/06 11:23:41;;;;;;;2.30;1.58;;;7.80;99.90;;;;;;5078919;28;20397;-59
2022/03/06 11:26:10;;;;;;;3.35;2.08;;;8.20;99.90;;;;;;5062789;28;20759;-59
2022/03/06 11:28:53;;;;;;;2.60;1.42;;;8.50;99.90;;;;;;5064217;28;20511;-59
2022/03/06 11:31:21;;;;;;;3.33;2.15;;;8.50;99.90;;;;;;5064236;28;20465;-58
2022/03/06 11:34:02;;;;;;;4.07;2.22;;;8.70;99.90;;;;;;5064115;28;20397;-58
2022/03/06 11:36:27;;;;;;;2.55;1.77;;;8.70;99.90;;;;;;5089944;28;20798;-58
2022/03/06 11:38:55;;;;;;;3.13;1.70;;;9.10;99.90;;;;;;5089816;28;22046;-56
2022/03/06 11:41:24;;;;;;;2.40;1.73;;;9.20;99.90;;;;;;5070724;28;20412;-55
2022/03/06 11:43:51;;;;;;;2.67;1.60;;;8.90;99.90;;;;;;5089395;28;20459;-58
2022/03/06 11:46:20;;;;;;;3.13;1.88;;;8.60;99.90;;;;;;5070095;28;20390;-54
2022/03/06 11:48:48;;;;;;;2.47;1.80;;;8.80;99.90;;;;;;5072379;28;20401;-57
2022/03/06 11:51:19;;;;;;;3.37;2.00;;;8.90;99.90;;;;;;5087720;28;20523;-58
2022/03/06 11:53:46;;;;;;;2.80;1.83;;;8.50;99.90;;;;;;5089465;28;20389;-55
2022/03/06 11:56:30;;;;;;;4.68;1.92;;;8.20;99.90;;;;;;5089345;28;20417;-55
2022/03/06 11:58:56;;;;;;;3.70;2.30;;;8.00;99.90;;;;;;5074902;28;20674;-60
2022/03/06 12:01:33;;;;;;;2.97;2.20;;;7.80;99.90;;;;;;5074966;28;20389;-55
2022/03/06 12:04:08;;;;;;;3.28;2.10;;;7.70;99.90;;;;;;5072948;28;20405;-58
2022/03/06 12:06:42;;;;;;;4.03;2.13;;;8.30;99.90;;;;;;5073555;28;20400;-58
2022/03/06 12:09:19;;;;;;;3.70;2.10;;;8.90;99.90;;;;;;5090039;28;20402;-58
2022/03/06 12:11:47;;;;;;;2.65;2.00;;;9.00;99.90;;;;;;5070645;28;20393;-57
2022/03/06 12:14:23;;;;;;;2.58;2.00;;;9.00;99.90;;;;;;5073498;28;20422;-58
2022/03/06 12:17:03;;;;;;;3.15;2.30;;;8.70;99.90;;;;;;5071881;28;20653;-58
2022/03/06 12:19:29;;;;;;;4.05;2.38;;;8.50;99.90;;;;;;5069517;28;20674;-53
2022/03/06 12:22:15;;;;;;;2.65;2.30;;;8.30;99.90;;;;;;5087191;28;20378;-57
2022/03/06 12:24:43;;;;;;;3.90;2.30;;;8.30;99.90;;;;;;5086002;28;20393;-55
2022/03/06 12:27:11;;;;;;;2.97;2.50;;;8.70;99.90;;;;;;5082856;28;20382;-55
2022/03/06 12:29:46;;;;;;;4.05;2.42;;;8.70;99.90;;;;;;5047181;28;20398;-58
2022/03/06 12:32:27;;;;;;;3.23;2.50;;;8.60;99.90;;;;;;5061533;28;20747;-54
2022/03/06 12:35:06;;;;;;;4.95;2.58;;;8.40;99.90;;;;;;5061401;28;20400;-58
2022/03/06 12:37:52;;;;;;;4.40;2.60;;;8.30;99.90;;;;;;5043257;28;20788;-56
2022/03/06 12:40:22;;;;;;;3.25;2.30;;;8.70;99.90;;;;;;5064473;28;20380;-57
2022/03/06 12:43:08;;;;;;;3.90;2.55;;;9.30;99.90;;;;;;5046786;28;20668;-57
2022/03/06 12:45:36;;;;;;;5.22;2.10;;;9.60;99.90;;;;;;5062850;28;20384;-58
2022/03/06 12:48:03;;;;;;;3.37;2.30;;;9.90;99.90;;;;;;5044548;28;20402;-58
2022/03/06 12:50:29;;;;;;;2.53;2.13;;;9.70;99.90;;;;;;5045871;28;20396;-58
2022/03/06 12:52:57;;;;;;;3.20;2.65;;;9.60;99.90;;;;;;5045302;28;20422;-58
2022/03/06 12:55:24;;;;;;;2.40;2.10;;;9.40;99.90;;;;;;5046778;28;20451;-57